Beechmont, Kentucky
Current Conditions -  °F | °C
As of 6:55 AM on Thursday 27 Nov 2014 (Local Time) from K2I0 Reporting Station
Overcast Overcast  
Wind Chill: 26°   Ceiling: 1400
Heat Index: 33°   Visibility: 7mi
Dew Point: 31°   Wind: 9mph
Humidity: 90%   Direction: 320°NW
Pressure: 30.35"   Gusts: 16mph
Location:  37.17°N, 87.04°W
Report Text: K2I0 271255Z AUTO 32008G14KT 7SM BKN014 OVC019 01/M01 A3035 RMK AO2 T00081006
Loading
Personal Weather Stations






























Interactive Weather Map New forecast layout! Learn more

10-Day Weather Forecast

Advertisements
Track Severe Weather on mobile